createdAt,value
2023-03-18T00:00:00.906Z,6.8
2023-03-18T00:01:16.204Z,6.9
2023-03-18T00:02:32.509Z,6.3
2023-03-18T00:03:48.803Z,6.5
2023-03-18T00:05:05.091Z,6.9
2023-03-18T00:06:21.393Z,6
2023-03-18T00:07:37.688Z,5.8
2023-03-18T00:08:53.988Z,5.8
2023-03-18T00:11:26.568Z,6.1
2023-03-18T00:12:42.851Z,6
2023-03-18T00:13:59.159Z,5.9
2023-03-18T00:15:15.444Z,5.6
2023-03-18T00:16:31.745Z,5.8
2023-03-18T00:17:47.050Z,5.9
2023-03-18T00:19:03.344Z,5.7
2023-03-18T00:20:19.639Z,5.7
2023-03-18T00:21:35.933Z,6
2023-03-18T00:22:52.238Z,5.7
2023-03-18T00:24:08.520Z,5.9
2023-03-18T00:25:24.813Z,6.1
2023-03-18T00:26:41.116Z,6
2023-03-18T00:27:57.399Z,6.6
2023-03-18T00:29:13.696Z,6.4
2023-03-18T00:30:29.992Z,6.2
2023-03-18T00:31:46.288Z,6.2
2023-03-18T00:33:02.577Z,5.9
2023-03-18T00:34:17.890Z,5.7
2023-03-18T00:35:34.194Z,5.9
2023-03-18T00:36:50.489Z,6.4
2023-03-18T00:38:06.767Z,7
2023-03-18T00:39:23.063Z,6.1
2023-03-18T00:40:39.362Z,5.8
2023-03-18T00:41:55.647Z,6.6
2023-03-18T00:43:11.946Z,5.9
2023-03-18T00:44:28.236Z,5.5
2023-03-18T00:45:44.543Z,5.7
2023-03-18T00:47:00.826Z,5.9
2023-03-18T00:48:17.124Z,5.4
2023-03-18T00:49:33.415Z,5.9
2023-03-18T00:50:48.729Z,5.6
2023-03-18T00:52:05.023Z,6
2023-03-18T00:53:21.330Z,5.7
2023-03-18T00:54:37.603Z,5.8
2023-03-18T00:55:53.905Z,5.8
2023-03-18T00:57:10.195Z,5.8
2023-03-18T00:58:25.511Z,5.4
2023-03-18T00:59:41.804Z,6
2023-03-18T01:00:58.095Z,6.1
2023-03-18T01:02:14.404Z,6.6
2023-03-18T01:03:30.700Z,6
2023-03-18T01:04:46.983Z,5.9
2023-03-18T01:06:03.290Z,5.7
2023-03-18T01:07:19.573Z,6.3
2023-03-18T01:08:35.862Z,5.7
2023-03-18T01:09:52.159Z,5.9
2023-03-18T01:11:08.456Z,5.9
2023-03-18T01:12:24.745Z,5.7
2023-03-18T01:13:41.040Z,5.7
2023-03-18T01:14:56.355Z,5.9
2023-03-18T01:16:12.645Z,5.9
2023-03-18T01:17:28.953Z,5.9
2023-03-18T01:18:45.250Z,6
2023-03-18T01:20:01.534Z,5.9
2023-03-18T01:21:17.822Z,6
2023-03-18T01:22:34.116Z,6.1
2023-03-18T01:23:50.411Z,6.1
2023-03-18T01:25:06.700Z,5.6
2023-03-18T01:26:22.993Z,5.7
2023-03-18T01:27:39.292Z,5.9
2023-03-18T01:28:55.587Z,5.9
2023-03-18T01:30:11.881Z,5.5
2023-03-18T01:31:27.191Z,5.9
2023-03-18T01:32:43.489Z,6.1
2023-03-18T01:33:59.788Z,5.9
2023-03-18T01:35:16.074Z,5.4
2023-03-18T01:36:32.368Z,5.7
2023-03-18T01:37:48.661Z,6
2023-03-18T01:39:04.951Z,5.4
2023-03-18T01:40:21.254Z,5.7
2023-03-18T01:41:37.543Z,5.7
2023-03-18T01:42:53.836Z,5.5
2023-03-18T01:44:10.127Z,5.6
2023-03-18T01:45:26.422Z,5.3
2023-03-18T01:46:42.725Z,5.6
2023-03-18T01:47:58.036Z,5.6
2023-03-18T01:49:14.337Z,5.4
2023-03-18T01:50:30.618Z,5.8
2023-03-18T01:51:46.923Z,5.7
2023-03-18T01:53:03.200Z,5.7
2023-03-18T01:54:19.498Z,5.6
2023-03-18T01:55:35.803Z,5.7
2023-03-18T01:56:52.088Z,6
2023-03-18T01:58:08.386Z,5.6
2023-03-18T01:59:24.676Z,5.7
2023-03-18T02:00:40.976Z,6
2023-03-18T02:01:57.269Z,5.6
2023-03-18T02:03:13.560Z,5.5
2023-03-18T02:04:28.866Z,5.9
2023-03-18T02:05:45.168Z,6.2
2023-03-18T02:07:01.459Z,5.7
2023-03-18T02:08:17.758Z,5.7
2023-03-18T02:09:34.048Z,5.4
2023-03-18T02:10:50.349Z,5.7
2023-03-18T02:12:06.645Z,5.4
2023-03-18T02:13:22.924Z,5.3
2023-03-18T02:14:39.219Z,5.8
2023-03-18T02:15:55.522Z,5.6
2023-03-18T02:17:11.807Z,5.6
2023-03-18T02:18:28.110Z,5.6
2023-03-18T02:19:44.394Z,5.2
2023-03-18T02:20:59.706Z,5
2023-03-18T02:22:16.000Z,5.3
2023-03-18T02:23:32.297Z,5.7
2023-03-18T02:24:48.587Z,5.3
2023-03-18T02:26:04.888Z,5.3
2023-03-18T02:27:21.176Z,5.4
2023-03-18T02:28:37.468Z,4.9
2023-03-18T02:29:53.780Z,5.6
2023-03-18T02:31:10.056Z,5.2
2023-03-18T02:32:26.372Z,5.2
2023-03-18T02:33:42.650Z,5.3
2023-03-18T02:34:58.944Z,5.6
2023-03-18T02:36:15.233Z,5.1
2023-03-18T02:37:30.549Z,5.6
2023-03-18T02:38:46.848Z,5.1
2023-03-18T02:40:03.147Z,5.5
2023-03-18T02:41:19.438Z,5.4
2023-03-18T02:42:35.737Z,5.3
2023-03-18T02:43:52.014Z,5
2023-03-18T02:45:08.316Z,5.1
2023-03-18T02:46:24.607Z,5.3
2023-03-18T02:47:40.905Z,5.2
2023-03-18T02:48:57.200Z,5.4
2023-03-18T02:50:13.482Z,5.2
2023-03-18T02:51:29.790Z,5.3
2023-03-18T02:52:46.088Z,5
2023-03-18T02:54:01.396Z,5.3
2023-03-18T02:55:17.677Z,5.7
2023-03-18T02:56:33.990Z,5.6
2023-03-18T02:57:50.267Z,5.5
2023-03-18T02:59:06.562Z,5.1
2023-03-18T03:00:22.853Z,5.2
2023-03-18T03:01:39.158Z,4.9
2023-03-18T03:02:55.448Z,5.1
2023-03-18T03:04:11.736Z,5.1
2023-03-18T03:05:28.034Z,5.4
2023-03-18T03:06:44.326Z,5.2
2023-03-18T03:08:00.622Z,5.4
2023-03-18T03:09:16.916Z,4.8
2023-03-18T03:10:32.223Z,5.6
2023-03-18T03:11:48.534Z,5.3
2023-03-18T03:13:04.822Z,5.4
2023-03-18T03:14:21.106Z,5.3
2023-03-18T03:15:37.401Z,5.6
2023-03-18T03:16:53.700Z,5
2023-03-18T03:18:09.997Z,5.6
2023-03-18T03:19:26.292Z,5.5
2023-03-18T03:20:42.575Z,5
2023-03-18T03:21:58.871Z,5.3
2023-03-18T03:23:15.171Z,5
2023-03-18T03:24:31.468Z,5.1
2023-03-18T03:25:47.754Z,5.3
2023-03-18T03:27:03.069Z,5.6
2023-03-18T03:28:19.367Z,5
2023-03-18T03:29:35.653Z,4.7
2023-03-18T03:30:51.944Z,5.1
2023-03-18T03:32:08.247Z,5
2023-03-18T03:33:24.543Z,5.6
2023-03-18T03:34:40.847Z,5
2023-03-18T03:35:57.121Z,4.7
2023-03-18T03:37:13.414Z,5.2
2023-03-18T03:38:29.712Z,5.3
2023-03-18T03:39:46.003Z,5.3
2023-03-18T03:41:02.312Z,4.8
2023-03-18T03:42:18.602Z,5.2
2023-03-18T03:43:33.909Z,5.5
2023-03-18T03:44:50.199Z,5.2
2023-03-18T03:46:06.494Z,5.4
2023-03-18T03:47:22.797Z,5.1
2023-03-18T03:48:39.084Z,5.1
2023-03-18T03:49:55.375Z,5
2023-03-18T03:51:11.674Z,5.4
2023-03-18T03:52:27.975Z,4.9
2023-03-18T03:53:44.272Z,4.9
2023-03-18T03:55:00.554Z,5.1
2023-03-18T03:56:16.847Z,4.9
2023-03-18T03:57:33.141Z,5.1
2023-03-18T03:58:49.436Z,5.2
2023-03-18T04:00:04.754Z,5.2
2023-03-18T04:01:21.041Z,5.3
2023-03-18T04:02:37.341Z,5
2023-03-18T04:03:53.638Z,4.9
2023-03-18T04:05:09.936Z,5.2
2023-03-18T04:06:26.216Z,4.8
2023-03-18T04:07:42.515Z,5
2023-03-18T04:08:58.812Z,5.1
2023-03-18T04:10:15.096Z,5.3
2023-03-18T04:11:31.392Z,4.9
2023-03-18T04:12:47.691Z,4.9
2023-03-18T04:14:03.985Z,5
2023-03-18T04:15:20.279Z,5.3
2023-03-18T04:16:35.592Z,5
2023-03-18T04:17:51.894Z,5
2023-03-18T04:19:08.180Z,5.4
2023-03-18T04:20:24.477Z,5.2
2023-03-18T04:21:40.778Z,5.1
2023-03-18T04:22:57.055Z,5.2
2023-03-18T04:24:13.364Z,5.3
2023-03-18T04:25:29.644Z,4.9
2023-03-18T04:26:45.943Z,5
2023-03-18T04:28:02.241Z,5.2
2023-03-18T04:29:18.533Z,5.3
2023-03-18T04:30:34.825Z,5.1
2023-03-18T04:31:51.119Z,4.6
2023-03-18T04:33:06.435Z,5.1
2023-03-18T04:34:22.730Z,5.1
2023-03-18T04:35:39.030Z,5.1
2023-03-18T04:36:55.320Z,5
2023-03-18T04:38:11.610Z,4.8
2023-03-18T04:39:27.899Z,5.2
2023-03-18T04:40:44.196Z,4.7
2023-03-18T04:42:00.489Z,5.3
2023-03-18T04:43:16.776Z,4.9
2023-03-18T04:44:33.088Z,5.1
2023-03-18T04:45:49.368Z,4.7
2023-03-18T04:47:05.672Z,5.1
2023-03-18T04:48:21.912Z,5.1
2023-03-18T04:49:37.215Z,5.1
2023-03-18T04:50:53.462Z,4.7
2023-03-18T04:52:09.717Z,4.6
2023-03-18T04:53:25.957Z,5.1
2023-03-18T04:54:42.183Z,5
2023-03-18T04:55:58.443Z,4.9
2023-03-18T04:57:14.677Z,5
2023-03-18T04:58:30.933Z,4.9
2023-03-18T04:59:47.165Z,5.1
2023-03-18T05:01:03.415Z,4.9
2023-03-18T05:02:19.659Z,5.2
2023-03-18T05:03:35.890Z,5.1
2023-03-18T05:04:52.127Z,5
2023-03-18T05:06:07.401Z,4.6
2023-03-18T05:07:23.630Z,4.9
2023-03-18T05:08:39.864Z,4.9
2023-03-18T05:09:56.104Z,5.1
2023-03-18T05:11:12.361Z,5.2
2023-03-18T05:12:28.588Z,5
2023-03-18T05:13:43.846Z,4.9
2023-03-18T05:15:00.091Z,4.9
2023-03-18T05:16:16.329Z,5
2023-03-18T05:17:32.569Z,4.5
2023-03-18T05:18:48.809Z,5.1
2023-03-18T05:20:05.051Z,4.7
2023-03-18T05:21:21.302Z,5
2023-03-18T05:22:37.528Z,4.7
2023-03-18T05:23:53.769Z,4.8
2023-03-18T05:25:10.006Z,4.5
2023-03-18T05:26:26.249Z,4.8
2023-03-18T05:27:42.495Z,4.9
2023-03-18T05:28:58.729Z,4.8
2023-03-18T05:30:13.982Z,4.9
2023-03-18T05:31:30.228Z,4.6
2023-03-18T05:32:46.464Z,5
2023-03-18T05:34:02.714Z,5.2
2023-03-18T05:35:18.961Z,4.7
2023-03-18T05:36:35.192Z,4.4
2023-03-18T05:37:51.431Z,5
2023-03-18T05:39:07.677Z,5
2023-03-18T05:40:23.923Z,4.9
2023-03-18T05:41:40.158Z,5.1
2023-03-18T05:42:56.398Z,5
2023-03-18T05:44:12.635Z,4.8
2023-03-18T05:45:28.867Z,4.8
2023-03-18T05:46:44.135Z,4.9
2023-03-18T05:48:00.366Z,4.7
2023-03-18T05:49:16.606Z,4.8
2023-03-18T05:50:32.858Z,4.8
2023-03-18T05:51:49.083Z,4.6
2023-03-18T05:53:05.343Z,4.7
2023-03-18T05:54:21.567Z,4.9
2023-03-18T05:55:37.808Z,4.9
2023-03-18T05:56:54.054Z,5.7
2023-03-18T05:58:10.288Z,5.1
2023-03-18T05:59:26.530Z,5.2
2023-03-18T06:00:42.771Z,5.2
2023-03-18T06:01:59.015Z,5.7
2023-03-18T06:03:14.272Z,4.9
2023-03-18T06:04:30.514Z,4.8
2023-03-18T06:05:46.755Z,4.6
2023-03-18T06:07:02.984Z,5
2023-03-18T06:08:19.239Z,4.7
2023-03-18T06:09:35.472Z,4.9
2023-03-18T06:10:51.717Z,4.9
2023-03-18T06:12:07.962Z,5.3
2023-03-18T06:13:24.200Z,5
2023-03-18T06:14:40.426Z,4.8
2023-03-18T06:15:56.680Z,5.1
2023-03-18T06:17:12.923Z,5
2023-03-18T06:18:29.160Z,5.1
2023-03-18T06:19:44.412Z,5.1
2023-03-18T06:21:00.642Z,4.9
2023-03-18T06:22:16.891Z,4.8
2023-03-18T06:23:33.133Z,4.8
2023-03-18T06:24:49.364Z,4.4
2023-03-18T06:26:05.606Z,4.6
2023-03-18T06:27:21.850Z,4.9
2023-03-18T06:28:38.092Z,5.2
2023-03-18T06:29:54.335Z,4.8
2023-03-18T06:31:10.572Z,4.9
2023-03-18T06:32:26.820Z,5.2
2023-03-18T06:33:43.059Z,5
2023-03-18T06:34:59.285Z,5.6
2023-03-18T06:36:14.543Z,5
2023-03-18T06:37:30.790Z,4.8
2023-03-18T06:38:47.019Z,4.6
2023-03-18T06:40:03.266Z,4.8
2023-03-18T06:41:19.506Z,4.8
2023-03-18T06:42:35.758Z,4.3
2023-03-18T06:43:51.979Z,4.9
2023-03-18T06:45:08.238Z,5.2
2023-03-18T06:46:24.466Z,4.8
2023-03-18T06:47:40.703Z,4.8
2023-03-18T06:48:56.953Z,4.8
2023-03-18T06:50:13.186Z,5.1
2023-03-18T06:51:29.434Z,5
2023-03-18T06:52:44.686Z,4.8
2023-03-18T06:54:00.935Z,4.9
2023-03-18T06:55:17.165Z,4.7
2023-03-18T06:56:33.409Z,5.1
2023-03-18T06:57:49.649Z,5.2
2023-03-18T06:59:05.888Z,5.1
2023-03-18T07:00:22.134Z,5
2023-03-18T07:01:38.369Z,5
2023-03-18T07:02:54.599Z,5
2023-03-18T07:04:10.855Z,4.8
2023-03-18T07:05:27.085Z,5.3
2023-03-18T07:06:43.332Z,5.1
2023-03-18T07:07:59.565Z,5.2
2023-03-18T07:09:14.827Z,4.9
2023-03-18T07:10:31.055Z,4.7
2023-03-18T07:11:47.303Z,5.4
2023-03-18T07:13:03.539Z,5
2023-03-18T07:14:19.778Z,4.9
2023-03-18T07:15:36.033Z,4.9
2023-03-18T07:16:52.259Z,5.1
2023-03-18T07:18:08.496Z,5.3
2023-03-18T07:19:24.751Z,5.1
2023-03-18T07:20:40.987Z,5.1
2023-03-18T07:21:57.223Z,5.1
2023-03-18T07:23:13.466Z,4.7
2023-03-18T07:24:29.700Z,4.6
2023-03-18T07:25:44.960Z,5.2
2023-03-18T07:27:01.199Z,4.7
2023-03-18T07:28:17.441Z,4.8
2023-03-18T07:29:33.680Z,4.8
2023-03-18T07:30:49.910Z,4.7
2023-03-18T07:32:06.160Z,5
2023-03-18T07:33:22.405Z,4.9
2023-03-18T07:34:38.631Z,4.9
2023-03-18T07:35:54.888Z,5.2
2023-03-18T07:37:11.127Z,4.8
2023-03-18T07:38:27.351Z,4.8
2023-03-18T07:39:43.588Z,4.8
2023-03-18T07:40:59.851Z,4.7
2023-03-18T07:42:15.097Z,5.1
2023-03-18T07:43:31.336Z,5
2023-03-18T07:44:47.566Z,4.9
2023-03-18T07:46:03.809Z,4.9
2023-03-18T07:47:20.051Z,4.8
2023-03-18T07:48:36.287Z,4.8
2023-03-18T07:49:52.531Z,5
2023-03-18T07:51:08.780Z,4.9
2023-03-18T07:52:25.017Z,5.1
2023-03-18T07:53:41.267Z,5.1
2023-03-18T07:54:57.489Z,5.1
2023-03-18T07:56:13.729Z,5.1
2023-03-18T07:57:29.978Z,4.9
2023-03-18T07:58:45.233Z,4.7
2023-03-18T08:00:01.473Z,4.8
2023-03-18T08:01:17.709Z,4.8
2023-03-18T08:02:33.942Z,4.5
2023-03-18T08:03:50.185Z,4.3
2023-03-18T08:05:06.429Z,4.6
2023-03-18T08:06:22.672Z,4.9
2023-03-18T08:07:38.920Z,4.6
2023-03-18T08:08:55.141Z,4.7
2023-03-18T08:10:11.399Z,4.9
2023-03-18T08:11:27.621Z,5
2023-03-18T08:12:43.861Z,4.6
2023-03-18T08:14:00.102Z,4.6
2023-03-18T08:15:15.374Z,4.7
2023-03-18T08:16:31.602Z,4.7
2023-03-18T08:17:47.837Z,4.6
2023-03-18T08:19:04.085Z,4.5
2023-03-18T08:20:20.320Z,4.7
2023-03-18T08:21:36.557Z,4.6
2023-03-18T08:22:52.811Z,4.8
2023-03-18T08:24:09.042Z,4.8
2023-03-18T08:25:25.290Z,4.7
2023-03-18T08:26:41.522Z,4.7
2023-03-18T08:27:57.762Z,4.7
2023-03-18T08:29:14.013Z,5.1
2023-03-18T08:30:30.236Z,4.6
2023-03-18T08:31:45.500Z,4.4
2023-03-18T08:33:01.741Z,4.6
2023-03-18T08:34:17.974Z,4.7
2023-03-18T08:35:34.213Z,4.5
2023-03-18T08:36:50.456Z,4.8
2023-03-18T08:38:06.712Z,4.7
2023-03-18T08:39:22.941Z,4.7
2023-03-18T08:40:39.176Z,5
2023-03-18T08:41:55.412Z,4.8
2023-03-18T08:43:11.652Z,4.8
2023-03-18T08:44:27.906Z,4.6
2023-03-18T08:45:44.153Z,4.7
2023-03-18T08:47:00.391Z,4.8
2023-03-18T08:48:15.640Z,4.7
2023-03-18T08:49:31.865Z,5.1
2023-03-18T08:50:48.105Z,4.8
2023-03-18T08:52:04.362Z,5
2023-03-18T08:53:20.589Z,4.6
2023-03-18T08:54:36.846Z,4.6
2023-03-18T08:55:53.084Z,4.4
2023-03-18T08:57:09.310Z,4.5
2023-03-18T08:58:25.564Z,4.5
2023-03-18T08:59:41.798Z,4.5
2023-03-18T09:00:58.044Z,4.2
2023-03-18T09:02:14.283Z,4.4
2023-03-18T09:03:30.517Z,3.9
2023-03-18T09:04:45.781Z,4.4
2023-03-18T09:06:02.009Z,4
2023-03-18T09:07:18.249Z,4.6
2023-03-18T09:08:34.487Z,4.3
2023-03-18T09:09:50.731Z,4.5
2023-03-18T09:11:06.968Z,4.1
2023-03-18T09:12:23.210Z,4.2
2023-03-18T09:13:39.454Z,4.6
2023-03-18T09:14:55.682Z,4.4
2023-03-18T09:16:11.920Z,4.1
2023-03-18T09:17:28.167Z,4.3
2023-03-18T09:18:44.415Z,4.1
2023-03-18T09:20:00.643Z,4.3
2023-03-18T09:21:15.901Z,4.5
2023-03-18T09:22:32.157Z,4.5
2023-03-18T09:23:48.391Z,4.3
2023-03-18T09:25:04.621Z,4.5
2023-03-18T09:26:20.854Z,4.6
2023-03-18T09:27:37.102Z,4.2
2023-03-18T09:28:52.374Z,4.5
2023-03-18T09:30:08.601Z,4.4
2023-03-18T09:31:24.849Z,4.3
2023-03-18T09:32:41.083Z,4.7
2023-03-18T09:33:57.322Z,4
2023-03-18T09:35:13.571Z,4.5
2023-03-18T09:36:29.801Z,4.2
2023-03-18T09:37:46.040Z,4.2
2023-03-18T09:39:02.288Z,4.5
2023-03-18T09:40:18.539Z,4.1
2023-03-18T09:41:34.760Z,3.8
2023-03-18T09:42:51.013Z,4
2023-03-18T09:44:07.242Z,4.1
2023-03-18T09:45:22.496Z,4
2023-03-18T09:46:38.753Z,4.1
2023-03-18T09:47:54.976Z,3.8
2023-03-18T09:49:11.228Z,4.6
2023-03-18T09:50:27.457Z,4.2
2023-03-18T09:51:43.691Z,4
2023-03-18T09:52:59.952Z,4.4
2023-03-18T09:54:16.194Z,4.2
2023-03-18T09:55:32.424Z,3.8
2023-03-18T09:56:48.663Z,3.9
2023-03-18T09:58:04.896Z,7.8
2023-03-18T09:59:21.134Z,322
2023-03-18T10:00:37.390Z,165.4
2023-03-18T10:01:52.635Z,316.1
2023-03-18T10:03:08.874Z,699.1
2023-03-18T10:04:25.118Z,422.3
2023-03-18T10:05:41.346Z,163.4
2023-03-18T10:06:57.591Z,159.7
2023-03-18T10:08:13.834Z,195.8
2023-03-18T10:09:30.077Z,64.6
2023-03-18T10:10:46.316Z,526.2
2023-03-18T10:13:18.795Z,617.5
2023-03-18T10:14:35.034Z,808.8
2023-03-18T10:15:51.268Z,756.4
2023-03-18T10:17:07.516Z,706.8
2023-03-18T10:18:22.766Z,79.2
2023-03-18T10:19:39.006Z,688.8
2023-03-18T10:20:55.251Z,175.1
2023-03-18T10:22:11.483Z,466.2
2023-03-18T10:23:27.000Z,114.2
2023-03-18T10:24:43.979Z,443.2
2023-03-18T10:26:00.199Z,645.7
2023-03-18T10:27:16.451Z,14.4
2023-03-18T10:28:32.691Z,87.7
2023-03-18T10:29:48.930Z,120.5
2023-03-18T10:31:05.174Z,264.6
2023-03-18T10:32:21.405Z,31.8
2023-03-18T10:33:37.642Z,93.4
2023-03-18T10:34:52.894Z,85.9
2023-03-18T10:36:09.145Z,48.8
2023-03-18T10:37:25.395Z,32.9
2023-03-18T10:38:41.622Z,225.5
2023-03-18T10:39:57.862Z,299.7
2023-03-18T10:41:14.096Z,6.7
2023-03-18T10:42:30.350Z,12.1
2023-03-18T10:43:46.587Z,5.5
2023-03-18T10:45:02.823Z,8.9
2023-03-18T10:46:19.068Z,4.3
2023-03-18T10:47:35.298Z,5.1
2023-03-18T10:48:51.542Z,6.8
2023-03-18T10:50:07.780Z,4.5
2023-03-18T10:51:23.036Z,3.8
2023-03-18T10:52:39.268Z,3.9
2023-03-18T10:53:55.509Z,3.9
2023-03-18T10:55:11.754Z,4.8
2023-03-18T10:56:28.003Z,3.4
2023-03-18T10:57:44.237Z,3.7
2023-03-18T10:59:00.475Z,3.5
2023-03-18T11:00:16.704Z,3.7
2023-03-18T11:01:32.951Z,3.6
2023-03-18T11:02:49.191Z,3.3
2023-03-18T11:04:05.439Z,3.6
2023-03-18T11:05:21.681Z,3.6
2023-03-18T11:06:37.913Z,3.3
2023-03-18T11:07:53.163Z,3.4
2023-03-18T11:09:09.409Z,3.2
2023-03-18T11:10:25.652Z,3.2
2023-03-18T11:11:41.883Z,3.4
2023-03-18T11:12:58.134Z,3.2
2023-03-18T11:14:14.365Z,3.3
2023-03-18T11:15:30.613Z,3.3
2023-03-18T11:16:46.842Z,3.4
2023-03-18T11:18:03.091Z,3.5
2023-03-18T11:19:19.333Z,3.5
2023-03-18T11:20:35.566Z,3.4
2023-03-18T11:21:51.801Z,3.5
2023-03-18T11:23:08.038Z,3.3
2023-03-18T11:24:23.303Z,3.8
2023-03-18T11:25:39.540Z,3.7
2023-03-18T11:26:55.795Z,3.9
2023-03-18T11:28:12.023Z,3.5
2023-03-18T11:29:28.261Z,3.8
2023-03-18T11:30:44.497Z,3.5
2023-03-18T11:32:00.748Z,4.1
2023-03-18T11:33:16.982Z,4
2023-03-18T11:34:33.212Z,4.1
2023-03-18T11:35:49.462Z,3.6
2023-03-18T11:37:05.686Z,3.6
2023-03-18T11:38:21.939Z,3.4
2023-03-18T11:39:38.177Z,3.1
2023-03-18T11:40:53.432Z,3.2
2023-03-18T11:42:09.669Z,3.2
2023-03-18T11:43:25.917Z,3.2
2023-03-18T11:44:42.161Z,3.4
2023-03-18T11:45:58.394Z,3.4
2023-03-18T11:47:14.629Z,4
2023-03-18T11:48:30.878Z,3.2
2023-03-18T11:49:47.124Z,3.4
2023-03-18T11:51:03.358Z,3.3
2023-03-18T11:52:19.602Z,3.1
2023-03-18T11:53:35.831Z,3.2
2023-03-18T11:54:52.072Z,3.4
2023-03-18T11:56:08.307Z,3.4
2023-03-18T11:57:23.564Z,3.4
2023-03-18T11:58:39.821Z,3.7
2023-03-18T11:59:56.035Z,3.1
2023-03-18T12:01:12.275Z,3.1
2023-03-18T12:02:28.515Z,3.4
2023-03-18T12:03:44.771Z,3.3
2023-03-18T12:05:01.003Z,3.1
2023-03-18T12:06:17.250Z,3.1
2023-03-18T12:07:33.476Z,2.9
2023-03-18T12:08:49.718Z,3
2023-03-18T12:10:05.955Z,3.3
2023-03-18T12:11:22.203Z,3.1
2023-03-18T12:12:38.438Z,3.3
2023-03-18T12:13:53.693Z,3
2023-03-18T12:15:09.938Z,3.2
2023-03-18T12:16:26.189Z,2.9
2023-03-18T12:17:42.422Z,3.2
2023-03-18T12:18:58.657Z,3.3
2023-03-18T12:20:14.899Z,3.1
2023-03-18T12:21:31.140Z,2.9
2023-03-18T12:22:47.375Z,2.9
2023-03-18T12:24:03.616Z,3
2023-03-18T12:25:19.866Z,3
2023-03-18T12:26:36.107Z,2.8
2023-03-18T12:27:52.332Z,3
2023-03-18T12:29:08.572Z,2.7
2023-03-18T12:30:23.838Z,2.9
2023-03-18T12:31:40.075Z,3.3
2023-03-18T12:32:56.323Z,3
2023-03-18T12:34:12.550Z,3.1
2023-03-18T12:35:28.794Z,2.8
2023-03-18T12:36:45.029Z,3.1
2023-03-18T12:38:01.271Z,3.2
2023-03-18T12:39:17.512Z,3.1
2023-03-18T12:40:33.759Z,3.2
2023-03-18T12:41:49.979Z,3.3
2023-03-18T12:43:06.228Z,2.8
2023-03-18T12:44:22.460Z,3.2
2023-03-18T12:45:38.721Z,3.4
2023-03-18T12:46:53.967Z,3.2
2023-03-18T12:48:10.203Z,3.2
2023-03-18T12:49:26.450Z,3.1
2023-03-18T12:50:42.689Z,3.1
2023-03-18T12:51:58.920Z,3.2
2023-03-18T12:53:15.154Z,3.4
2023-03-18T12:54:31.407Z,2.9
2023-03-18T12:55:47.642Z,3
2023-03-18T12:57:03.880Z,3.4
2023-03-18T12:58:20.123Z,3.4
2023-03-18T12:59:36.351Z,3.1
2023-03-18T13:00:52.596Z,3.3
2023-03-18T13:02:08.834Z,3.4
2023-03-18T13:03:24.100Z,3.1
2023-03-18T13:04:40.346Z,3.2
2023-03-18T13:05:56.576Z,3
2023-03-18T13:07:12.809Z,3.5
2023-03-18T13:08:29.061Z,3.3
2023-03-18T13:09:45.295Z,3.4
2023-03-18T13:11:01.543Z,3.3
2023-03-18T13:12:17.775Z,3.5
2023-03-18T13:13:34.027Z,3.4
2023-03-18T13:14:50.250Z,3.3
2023-03-18T13:16:06.496Z,3.3
2023-03-18T13:17:22.733Z,3.8
2023-03-18T13:18:38.984Z,3.7
2023-03-18T13:19:54.224Z,3.6
2023-03-18T13:21:10.470Z,3.6
2023-03-18T13:22:26.715Z,3.5
2023-03-18T13:23:42.968Z,3.6
2023-03-18T13:24:59.189Z,3.8
2023-03-18T13:26:15.437Z,3.6
2023-03-18T13:27:31.668Z,3.6
2023-03-18T13:28:47.917Z,3.6
2023-03-18T13:30:04.142Z,3.3
2023-03-18T13:31:20.384Z,3.6
2023-03-18T13:32:36.629Z,3.4
2023-03-18T13:33:52.874Z,3.2
2023-03-18T13:35:09.107Z,3.2
2023-03-18T13:36:24.370Z,3.3
2023-03-18T13:37:40.606Z,3.2
2023-03-18T13:38:56.853Z,3.1
2023-03-18T13:40:13.086Z,3.4
2023-03-18T13:41:29.340Z,3.2
2023-03-18T13:42:45.555Z,3.3
2023-03-18T13:44:00.830Z,3.6
2023-03-18T13:45:17.071Z,3.4
2023-03-18T13:46:33.307Z,3.3
2023-03-18T13:47:49.546Z,3.3
2023-03-18T13:49:05.777Z,3.3
2023-03-18T13:50:22.017Z,3
2023-03-18T13:51:38.256Z,3.5
2023-03-18T13:52:54.500Z,3.3
2023-03-18T13:54:10.733Z,3.1
2023-03-18T13:55:26.983Z,3.3
2023-03-18T13:56:43.232Z,3.3
2023-03-18T13:57:59.458Z,3.2
2023-03-18T13:59:15.707Z,3.3
2023-03-18T14:00:30.963Z,3.2
2023-03-18T14:01:47.197Z,3.1
2023-03-18T14:03:03.431Z,3.1
2023-03-18T14:04:19.675Z,3.3
2023-03-18T14:05:35.923Z,3
2023-03-18T14:06:52.156Z,3
2023-03-18T14:08:08.402Z,3.3
2023-03-18T14:09:24.631Z,3.3
2023-03-18T14:10:40.876Z,3.1
2023-03-18T14:11:57.115Z,3
2023-03-18T14:13:13.350Z,3.5
2023-03-18T14:14:29.600Z,3.3
2023-03-18T14:15:45.841Z,3.2
2023-03-18T14:17:01.085Z,3.5
2023-03-18T14:18:17.327Z,3.1
2023-03-18T14:19:33.560Z,3.5
2023-03-18T14:20:49.805Z,3.4
2023-03-18T14:22:06.049Z,3.2
2023-03-18T14:23:22.293Z,3.4
2023-03-18T14:24:38.531Z,3.4
2023-03-18T14:25:54.782Z,3.3
2023-03-18T14:27:11.003Z,3.2
2023-03-18T14:28:27.244Z,2.9
2023-03-18T14:29:43.486Z,2.9
2023-03-18T14:30:59.728Z,2.8
2023-03-18T14:32:15.959Z,2.9
2023-03-18T14:33:31.222Z,3.3
2023-03-18T14:34:47.471Z,3.5
2023-03-18T14:36:03.709Z,3.1
2023-03-18T14:37:19.934Z,3.1
2023-03-18T14:38:36.187Z,3.1
2023-03-18T14:39:52.435Z,3.2
2023-03-18T14:41:08.671Z,2.9
2023-03-18T14:42:24.911Z,3.1
2023-03-18T14:43:41.131Z,3.1
2023-03-18T14:44:57.384Z,3.2
2023-03-18T14:46:13.616Z,2.9
2023-03-18T14:47:29.857Z,3
2023-03-18T14:48:46.108Z,3.1
2023-03-18T14:50:01.357Z,3.1
2023-03-18T14:51:17.594Z,3.1
2023-03-18T14:52:33.840Z,3
2023-03-18T14:53:50.070Z,3
2023-03-18T14:55:06.318Z,3.3
2023-03-18T14:56:22.562Z,3.4
2023-03-18T14:57:38.802Z,3
2023-03-18T14:58:55.040Z,3.3
2023-03-18T15:00:11.292Z,3
2023-03-18T15:01:27.503Z,3.1
2023-03-18T15:02:43.759Z,3.3
2023-03-18T15:03:59.992Z,3.1
2023-03-18T15:05:16.234Z,3.2
2023-03-18T15:06:31.487Z,3.3
2023-03-18T15:09:03.975Z,3.3
2023-03-18T15:10:20.200Z,3.4
2023-03-18T15:11:36.458Z,3.3
2023-03-18T15:12:52.695Z,3.1
2023-03-18T15:14:08.925Z,3.2
2023-03-18T15:15:25.174Z,3.4
2023-03-18T15:16:41.406Z,3.7
2023-03-18T15:17:57.654Z,3.8
2023-03-18T15:19:13.890Z,3.1
2023-03-18T15:20:30.135Z,3.4
2023-03-18T15:21:46.375Z,3.1
2023-03-18T15:23:01.624Z,3.1
2023-03-18T15:24:17.860Z,3.2
2023-03-18T15:25:34.125Z,3.4
2023-03-18T15:26:50.346Z,3
2023-03-18T15:28:06.588Z,2.9
2023-03-18T15:29:22.827Z,3.1
2023-03-18T15:30:39.070Z,3.1
2023-03-18T15:31:55.294Z,2.8
2023-03-18T15:33:11.545Z,2.8
2023-03-18T15:34:27.788Z,3
2023-03-18T15:35:44.018Z,3.1
2023-03-18T15:37:00.254Z,3.3
2023-03-18T15:38:16.512Z,3
2023-03-18T15:39:31.744Z,3.4
2023-03-18T15:40:48.015Z,3.3
2023-03-18T15:42:04.226Z,3.1
2023-03-18T15:43:20.496Z,3
2023-03-18T15:44:36.711Z,3.2
2023-03-18T15:45:52.948Z,2.8
2023-03-18T15:47:09.197Z,3
2023-03-18T15:48:25.447Z,2.5
2023-03-18T15:49:41.670Z,2.7
2023-03-18T15:50:57.000Z,3.4
2023-03-18T15:52:14.146Z,2.9
2023-03-18T15:53:30.397Z,2.9
2023-03-18T15:54:46.637Z,3
2023-03-18T15:56:01.875Z,3.1
2023-03-18T15:57:18.144Z,3.7
2023-03-18T15:58:34.364Z,3.2
2023-03-18T15:59:50.602Z,3.6
2023-03-18T16:01:06.848Z,3.3
2023-03-18T16:02:23.078Z,3.2
2023-03-18T16:03:39.319Z,3.1
2023-03-18T16:04:55.562Z,3.5
2023-03-18T16:06:11.797Z,3.1
2023-03-18T16:07:28.046Z,3.2
2023-03-18T16:08:44.299Z,3.1
2023-03-18T16:10:00.513Z,3.2
2023-03-18T16:11:16.762Z,3.5
2023-03-18T16:12:32.042Z,2.9
2023-03-18T16:13:48.250Z,3
2023-03-18T16:15:04.507Z,3.2
2023-03-18T16:16:20.748Z,3
2023-03-18T16:17:36.980Z,3
2023-03-18T16:18:53.230Z,3.2
2023-03-18T16:20:09.461Z,3
2023-03-18T16:21:25.712Z,3.3
2023-03-18T16:22:41.935Z,3.2
2023-03-18T16:23:58.168Z,2.9
2023-03-18T16:25:14.423Z,3.1
2023-03-18T16:26:30.650Z,2.8
2023-03-18T16:27:46.910Z,3.1
2023-03-18T16:29:02.142Z,2.9
2023-03-18T16:30:18.394Z,2.9
2023-03-18T16:31:34.638Z,2.8
2023-03-18T16:32:50.869Z,2.8
2023-03-18T16:34:07.117Z,2.9
2023-03-18T16:35:23.346Z,2.9
2023-03-18T16:36:39.577Z,2.9
2023-03-18T16:37:55.838Z,3
2023-03-18T16:39:12.062Z,2.8
2023-03-18T16:40:28.317Z,2.9
2023-03-18T16:41:44.572Z,3.2
2023-03-18T16:43:00.776Z,2.7
2023-03-18T16:44:17.038Z,2.8
2023-03-18T16:45:32.276Z,2.6
2023-03-18T16:46:48.537Z,2.7
2023-03-18T16:48:04.772Z,2.8
2023-03-18T16:49:20.998Z,2.9
2023-03-18T16:50:37.250Z,2.9
2023-03-18T16:51:53.490Z,2.9
2023-03-18T16:53:09.721Z,2.9
2023-03-18T16:54:25.959Z,2.8
2023-03-18T16:55:42.196Z,2.5
2023-03-18T16:56:58.451Z,2.7
2023-03-18T16:58:14.686Z,2.6
2023-03-18T16:59:30.909Z,2.7
2023-03-18T17:00:47.158Z,2.9
2023-03-18T17:02:02.410Z,2.5
2023-03-18T17:03:18.645Z,2.5
2023-03-18T17:04:34.907Z,2.7
2023-03-18T17:05:51.132Z,2.5
2023-03-18T17:07:07.362Z,2.7
2023-03-18T17:08:23.613Z,2.8
2023-03-18T17:09:39.873Z,2.7
2023-03-18T17:10:56.092Z,3
2023-03-18T17:12:12.355Z,2.9
2023-03-18T17:13:28.577Z,3
2023-03-18T17:14:44.820Z,3.3
2023-03-18T17:16:01.049Z,3.5
2023-03-18T17:17:17.303Z,3.3
2023-03-18T17:18:32.543Z,3.5
2023-03-18T17:19:48.777Z,4
2023-03-18T17:21:05.035Z,3.9
2023-03-18T17:22:21.280Z,4.5
2023-03-18T17:23:37.504Z,4
2023-03-18T17:24:53.742Z,3.7
2023-03-18T17:26:09.000Z,3.5
2023-03-18T17:27:26.218Z,3.5
2023-03-18T17:28:42.467Z,3.7
2023-03-18T17:29:58.697Z,3.7
2023-03-18T17:31:14.958Z,3.7
2023-03-18T17:32:31.183Z,3.2
2023-03-18T17:33:47.440Z,3.9
2023-03-18T17:35:02.680Z,3.4
2023-03-18T17:36:18.928Z,3.8
2023-03-18T17:37:35.165Z,3.5